createdAt,value
2018-03-25T00:01:00.084Z,21.25
2018-03-25T00:03:26.065Z,21.25
2018-03-25T00:05:52.097Z,21.24
2018-03-25T00:08:18.046Z,21.25
2018-03-25T00:10:44.042Z,21.23
2018-03-25T00:13:10.042Z,21.23
2018-03-25T00:15:36.036Z,21.23
2018-03-25T00:18:02.072Z,21.23
2018-03-25T00:20:28.064Z,21.22
2018-03-25T00:22:54.023Z,21.19
2018-03-25T00:25:20.045Z,21.20
2018-03-25T00:27:46.068Z,21.19
2018-03-25T00:30:11.994Z,21.20
2018-03-25T00:32:38.014Z,21.20
2018-03-25T00:35:03.978Z,21.20
2018-03-25T00:37:29.999Z,21.20
2018-03-25T00:39:56.018Z,21.17
2018-03-25T00:42:21.973Z,21.18
2018-03-25T00:44:47.960Z,21.17
2018-03-25T00:47:13.953Z,21.14
2018-03-25T00:49:39.946Z,21.16
2018-03-25T00:52:05.937Z,21.16
2018-03-25T00:54:31.958Z,21.15
2018-03-25T00:56:57.981Z,21.15
2018-03-25T00:59:23.936Z,21.17
2018-03-25T01:01:49.925Z,21.15
2018-03-25T01:04:15.916Z,21.14
2018-03-25T01:06:41.908Z,21.16
2018-03-25T01:09:07.899Z,21.15
2018-03-25T01:11:33.890Z,21.16
2018-03-25T01:13:59.911Z,21.15
2018-03-25T01:16:25.892Z,21.13
2018-03-25T01:18:51.884Z,21.12
2018-03-25T01:21:17.907Z,21.12
2018-03-25T01:23:43.896Z,21.15
2018-03-25T01:26:09.886Z,21.12
2018-03-25T01:28:35.874Z,21.13
2018-03-25T01:31:01.934Z,21.12
2018-03-25T01:33:27.890Z,21.12
2018-03-25T01:35:53.913Z,21.13
2018-03-25T01:38:19.882Z,21.12
2018-03-25T01:40:45.862Z,21.11
2018-03-25T01:43:11.879Z,21.11
2018-03-25T01:45:37.868Z,21.12
2018-03-25T01:48:03.856Z,21.10
2018-03-25T01:50:29.877Z,21.10
2018-03-25T01:52:55.865Z,21.11
2018-03-25T01:55:21.885Z,21.10
2018-03-25T01:57:47.884Z,21.10
2018-03-25T02:00:13.909Z,21.09
2018-03-25T02:02:39.869Z,21.09
2018-03-25T02:05:05.865Z,21.10
2018-03-25T02:07:31.845Z,21.09
2018-03-25T02:09:57.838Z,21.09
2018-03-25T02:12:23.833Z,21.09
2018-03-25T02:14:49.833Z,21.10
2018-03-25T02:17:15.856Z,21.08
2018-03-25T02:19:41.850Z,21.09
2018-03-25T02:22:07.807Z,21.09
2018-03-25T02:24:33.830Z,21.10
2018-03-25T02:26:59.782Z,21.08
2018-03-25T02:29:25.788Z,21.08
2018-03-25T02:31:51.785Z,21.07
2018-03-25T02:34:17.776Z,21.07
2018-03-25T02:36:43.770Z,21.07
2018-03-25T02:39:09.763Z,21.06
2018-03-25T02:41:35.905Z,21.07
2018-03-25T02:44:01.890Z,21.06
2018-03-25T02:46:27.873Z,21.08
2018-03-25T02:48:53.871Z,21.07
2018-03-25T02:51:19.891Z,21.06
2018-03-25T02:53:45.847Z,21.06
2018-03-25T02:56:11.866Z,21.04
2018-03-25T02:58:37.860Z,21.06
2018-03-25T03:01:03.842Z,21.06
2018-03-25T03:03:29.830Z,21.06
2018-03-25T03:05:55.822Z,21.06
2018-03-25T03:08:21.814Z,21.05
2018-03-25T03:10:47.836Z,21.03
2018-03-25T03:13:13.825Z,21.04
2018-03-25T03:15:39.791Z,21.04
2018-03-25T03:18:05.781Z,21.04
2018-03-25T03:20:31.812Z,21.05
2018-03-25T03:22:57.764Z,21.06
2018-03-25T03:25:23.762Z,21.06
2018-03-25T03:27:49.754Z,21.07
2018-03-25T03:30:15.743Z,21.05
2018-03-25T03:32:41.734Z,21.06
2018-03-25T03:35:07.755Z,21.06
2018-03-25T03:37:33.713Z,21.05
2018-03-25T03:39:59.733Z,21.05
2018-03-25T03:42:25.694Z,21.05
2018-03-25T03:44:51.689Z,21.03
2018-03-25T03:47:17.696Z,21.03
2018-03-25T03:49:43.692Z,21.05
2018-03-25T03:52:09.678Z,21.04
2018-03-25T03:54:35.674Z,21.03
2018-03-25T03:57:01.656Z,21.03
2018-03-25T03:59:27.681Z,21.03
2018-03-25T04:01:53.669Z,21.04
2018-03-25T04:04:19.626Z,21.05
2018-03-25T04:06:45.624Z,21.03
2018-03-25T04:09:11.609Z,21.03
2018-03-25T04:11:37.662Z,21.03
2018-03-25T04:14:03.645Z,21.03
2018-03-25T04:16:29.603Z,21.02
2018-03-25T04:18:55.594Z,21.03
2018-03-25T04:21:21.583Z,21.02
2018-03-25T04:23:47.578Z,21.02
2018-03-25T04:26:13.572Z,21.03
2018-03-25T04:28:39.569Z,21.01
2018-03-25T04:31:05.558Z,21.01
2018-03-25T04:33:31.602Z,21.01
2018-03-25T04:35:57.596Z,21.02
2018-03-25T04:40:49.565Z,21.02
2018-03-25T04:43:15.564Z,21.03
2018-03-25T04:45:41.518Z,21.02
2018-03-25T04:48:07.515Z,21.00
2018-03-25T04:50:33.506Z,21.00
2018-03-25T04:52:59.530Z,21.01
2018-03-25T04:55:25.494Z,21.02
2018-03-25T04:57:51.525Z,21.01
2018-03-25T05:00:17.479Z,21.01
2018-03-25T05:02:43.470Z,21.00
2018-03-25T05:05:09.485Z,21.00
2018-03-25T05:07:35.444Z,21.02
2018-03-25T05:10:01.463Z,21.01
2018-03-25T05:12:27.454Z,21.00
2018-03-25T05:14:53.442Z,20.99
2018-03-25T05:17:19.439Z,20.98
2018-03-25T05:19:45.438Z,20.99
2018-03-25T05:22:11.459Z,20.99
2018-03-25T05:24:37.454Z,21.00
2018-03-25T05:27:03.441Z,21.00
2018-03-25T05:29:29.398Z,20.99
2018-03-25T05:31:55.423Z,20.99
2018-03-25T05:34:21.408Z,21.00
2018-03-25T05:36:47.381Z,20.99
2018-03-25T05:39:13.407Z,21.00
2018-03-25T05:41:39.383Z,21.00
2018-03-25T05:44:05.394Z,20.99
2018-03-25T05:46:31.384Z,21.00
2018-03-25T05:48:57.381Z,20.98
2018-03-25T05:51:23.369Z,21.00
2018-03-25T05:53:49.386Z,21.02
2018-03-25T05:56:15.398Z,21.04
2018-03-25T05:58:41.384Z,21.05
2018-03-25T06:01:07.346Z,21.05
2018-03-25T06:03:33.362Z,21.07
2018-03-25T06:05:59.350Z,21.11
2018-03-25T06:08:25.343Z,21.20
2018-03-25T06:10:51.343Z,21.27
2018-03-25T06:13:17.328Z,21.31
2018-03-25T06:15:43.318Z,21.30
2018-03-25T06:18:09.810Z,21.33
2018-03-25T06:20:36.388Z,21.29
2018-03-25T06:23:02.974Z,21.32
2018-03-25T06:25:28.986Z,21.30
2018-03-25T06:27:55.019Z,21.28
2018-03-25T06:30:21.014Z,21.32
2018-03-25T06:32:47.006Z,21.33
2018-03-25T06:35:13.025Z,21.32
2018-03-25T06:37:39.011Z,21.35
2018-03-25T06:40:05.019Z,21.34
2018-03-25T06:42:31.010Z,21.36
2018-03-25T06:44:56.998Z,21.32
2018-03-25T06:47:23.031Z,21.35
2018-03-25T06:49:49.020Z,21.39
2018-03-25T06:52:15.079Z,21.44
2018-03-25T06:54:41.003Z,21.43
2018-03-25T06:57:06.989Z,21.41
2018-03-25T06:59:32.986Z,21.40
2018-03-25T07:01:59.011Z,21.40
2018-03-25T07:04:24.977Z,21.37
2018-03-25T07:06:50.996Z,21.39
2018-03-25T07:09:17.014Z,21.35
2018-03-25T07:11:43.003Z,21.36
2018-03-25T07:14:08.964Z,21.37
2018-03-25T07:16:34.958Z,21.36
2018-03-25T07:19:00.966Z,21.37
2018-03-25T07:21:26.970Z,21.38
2018-03-25T07:23:52.954Z,21.36
2018-03-25T07:26:18.951Z,21.36
2018-03-25T07:28:44.944Z,21.33
2018-03-25T07:31:10.938Z,21.34
2018-03-25T07:33:36.933Z,21.33
2018-03-25T07:36:02.920Z,21.36
2018-03-25T07:38:29.008Z,21.33
2018-03-25T07:40:54.996Z,21.32
2018-03-25T07:43:21.096Z,21.33
2018-03-25T07:45:47.086Z,21.32
2018-03-25T07:48:13.100Z,21.31
2018-03-25T07:50:40.017Z,21.30
2018-03-25T07:53:05.972Z,21.32
2018-03-25T07:55:31.965Z,21.32
2018-03-25T07:57:57.953Z,21.30
2018-03-25T08:00:26.422Z,21.31
2018-03-25T08:02:52.413Z,21.31
2018-03-25T08:05:18.453Z,21.31
2018-03-25T08:07:44.466Z,21.30
2018-03-25T08:10:10.626Z,21.31
2018-03-25T08:12:36.626Z,21.31
2018-03-25T08:15:03.017Z,21.30
2018-03-25T08:17:29.034Z,21.30
2018-03-25T08:19:54.985Z,21.28
2018-03-25T08:22:21.002Z,21.29
2018-03-25T08:24:46.973Z,21.30
2018-03-25T08:27:13.097Z,21.28
2018-03-25T08:29:39.097Z,21.29
2018-03-25T08:32:05.099Z,21.27
2018-03-25T08:34:31.083Z,21.28
2018-03-25T08:36:57.082Z,21.28
2018-03-25T08:39:23.074Z,21.27
2018-03-25T08:41:49.094Z,21.28
2018-03-25T08:44:15.088Z,21.27
2018-03-25T08:46:41.077Z,21.28
2018-03-25T08:49:07.162Z,21.27
2018-03-25T08:51:33.191Z,21.27
2018-03-25T08:53:59.169Z,21.27
2018-03-25T08:56:25.539Z,21.27
2018-03-25T08:58:52.014Z,21.27
2018-03-25T09:01:18.007Z,21.26
2018-03-25T09:03:43.962Z,21.24
2018-03-25T09:06:09.988Z,21.25
2018-03-25T09:08:36.652Z,21.26
2018-03-25T09:11:02.848Z,21.24
2018-03-25T09:13:28.848Z,21.26
2018-03-25T09:15:54.845Z,21.24
2018-03-25T09:18:20.836Z,21.26
2018-03-25T09:20:46.828Z,21.26
2018-03-25T09:23:12.838Z,21.25
2018-03-25T09:25:38.988Z,21.25
2018-03-25T09:28:04.966Z,21.24
2018-03-25T09:30:32.064Z,21.25
2018-03-25T09:33:00.332Z,21.23
2018-03-25T09:35:26.425Z,21.23
2018-03-25T09:37:52.439Z,21.23
2018-03-25T09:40:18.438Z,21.23
2018-03-25T09:42:44.425Z,21.25
2018-03-25T09:45:10.439Z,21.24
2018-03-25T09:47:38.323Z,21.26
2018-03-25T09:50:06.246Z,21.26
2018-03-25T09:52:33.517Z,21.30
2018-03-25T09:55:02.592Z,21.31
2018-03-25T09:57:29.875Z,21.33
2018-03-25T09:59:55.859Z,21.37
2018-03-25T10:02:21.858Z,21.36
2018-03-25T10:04:47.915Z,21.38
2018-03-25T10:07:13.903Z,21.49
2018-03-25T10:09:39.878Z,21.47
2018-03-25T10:12:05.889Z,21.51
2018-03-25T10:14:31.880Z,21.51
2018-03-25T10:16:57.950Z,21.48
2018-03-25T10:19:24.827Z,21.49
2018-03-25T10:21:52.479Z,21.46
2018-03-25T10:24:18.497Z,21.46
2018-03-25T10:26:44.535Z,21.45
2018-03-25T10:29:10.777Z,21.44
2018-03-25T10:31:36.739Z,21.43
2018-03-25T10:34:02.739Z,21.40
2018-03-25T10:36:28.758Z,21.40
2018-03-25T10:38:54.750Z,21.41
2018-03-25T10:41:20.745Z,21.41
2018-03-25T10:43:46.746Z,21.42
2018-03-25T10:46:12.743Z,21.39
2018-03-25T10:48:38.849Z,21.42
2018-03-25T10:51:04.838Z,21.41
2018-03-25T10:53:30.824Z,21.41
2018-03-25T10:55:56.856Z,21.42
2018-03-25T10:58:22.849Z,21.40
2018-03-25T11:00:48.834Z,21.42
2018-03-25T11:03:14.859Z,21.40
2018-03-25T11:05:40.822Z,21.39
2018-03-25T11:08:06.846Z,21.38
2018-03-25T11:10:32.865Z,21.39
2018-03-25T11:12:59.259Z,21.41
2018-03-25T11:15:25.245Z,21.38
2018-03-25T11:17:51.201Z,21.42
2018-03-25T11:20:17.225Z,21.43
2018-03-25T11:22:43.343Z,21.50
2018-03-25T11:25:09.331Z,21.51
2018-03-25T11:27:35.322Z,21.51
2018-03-25T11:30:01.365Z,21.50
2018-03-25T11:32:27.358Z,21.47
2018-03-25T11:34:56.256Z,21.47
2018-03-25T11:37:22.291Z,21.45
2018-03-25T11:39:48.340Z,21.44
2018-03-25T11:42:14.486Z,21.44
2018-03-25T11:44:41.075Z,21.42
2018-03-25T11:47:07.353Z,21.41
2018-03-25T11:52:08.983Z,21.38
2018-03-25T11:54:36.432Z,21.38
2018-03-25T11:57:03.995Z,21.35
2018-03-25T11:59:31.166Z,21.35
2018-03-25T12:01:57.686Z,21.33
2018-03-25T12:04:24.830Z,21.34
2018-03-25T12:06:51.708Z,21.33
2018-03-25T12:09:24.293Z,21.32
2018-03-25T12:11:54.086Z,21.30
2018-03-25T12:14:29.001Z,21.30
2018-03-25T12:16:55.163Z,21.32
2018-03-25T12:19:21.664Z,21.33
2018-03-25T12:21:49.447Z,21.29
2018-03-25T12:24:15.507Z,21.29
2018-03-25T12:26:41.536Z,21.29
2018-03-25T12:29:10.938Z,21.33
2018-03-25T12:31:37.039Z,21.32
2018-03-25T12:34:03.079Z,21.35
2018-03-25T12:36:29.108Z,21.34
2018-03-25T12:38:55.120Z,21.33
2018-03-25T12:41:21.257Z,21.36
2018-03-25T12:43:47.274Z,21.35
2018-03-25T12:46:13.410Z,21.36
2018-03-25T12:48:39.404Z,21.37
2018-03-25T12:51:05.403Z,21.36
2018-03-25T12:53:31.391Z,21.34
2018-03-25T12:55:57.410Z,21.35
2018-03-25T12:58:23.431Z,21.36
2018-03-25T13:00:49.420Z,21.39
2018-03-25T13:03:15.405Z,21.35
2018-03-25T13:05:41.397Z,21.33
2018-03-25T13:08:07.417Z,21.35
2018-03-25T13:10:33.380Z,21.38
2018-03-25T13:12:59.448Z,21.36
2018-03-25T13:15:25.444Z,21.35
2018-03-25T13:17:51.429Z,21.35
2018-03-25T13:20:17.446Z,21.36
2018-03-25T13:22:43.469Z,21.35
2018-03-25T13:25:09.461Z,21.33
2018-03-25T13:27:35.415Z,21.36
2018-03-25T13:30:01.400Z,21.37
2018-03-25T13:32:27.391Z,21.36
2018-03-25T13:34:53.387Z,21.36
2018-03-25T13:37:19.395Z,21.39
2018-03-25T13:39:45.385Z,21.40
2018-03-25T13:42:11.406Z,21.50
2018-03-25T13:44:37.417Z,21.42
2018-03-25T13:47:03.376Z,21.49
2018-03-25T13:49:29.373Z,21.51
2018-03-25T13:51:55.384Z,21.53
2018-03-25T13:54:21.418Z,21.51
2018-03-25T13:56:47.406Z,21.53
2018-03-25T13:59:13.394Z,21.55
2018-03-25T14:01:39.389Z,21.51
2018-03-25T14:04:05.378Z,21.51
2018-03-25T14:06:31.396Z,21.54
2018-03-25T14:08:57.386Z,21.57
2018-03-25T14:11:23.374Z,21.58
2018-03-25T14:13:49.399Z,21.55
2018-03-25T14:16:15.369Z,21.57
2018-03-25T14:18:41.373Z,21.55
2018-03-25T14:21:07.371Z,21.55
2018-03-25T14:23:33.369Z,21.56
2018-03-25T14:25:59.358Z,21.56
2018-03-25T14:28:25.378Z,21.58
2018-03-25T14:30:51.345Z,21.60
2018-03-25T14:33:17.351Z,21.56
2018-03-25T14:35:43.337Z,21.57
2018-03-25T14:38:09.613Z,21.54
2018-03-25T14:40:36.595Z,21.54
2018-03-25T14:43:02.582Z,21.50
2018-03-25T14:45:30.757Z,21.48
2018-03-25T14:47:56.752Z,21.49
2018-03-25T14:50:27.814Z,21.51
2018-03-25T14:52:54.124Z,21.48
2018-03-25T14:55:21.522Z,21.45
2018-03-25T14:57:48.250Z,21.41
2018-03-25T15:00:14.455Z,21.42
2018-03-25T15:02:41.101Z,21.42
2018-03-25T15:05:07.184Z,21.44
2018-03-25T15:07:33.216Z,21.44
2018-03-25T15:10:00.421Z,21.47
2018-03-25T15:12:26.419Z,21.50
2018-03-25T15:14:53.054Z,21.53
2018-03-25T15:17:19.036Z,21.56
2018-03-25T15:19:45.114Z,21.53
2018-03-25T15:22:11.057Z,21.53
2018-03-25T15:24:37.056Z,21.53
2018-03-25T15:27:03.141Z,21.55
2018-03-25T15:29:29.134Z,21.57
2018-03-25T15:31:55.384Z,21.58
2018-03-25T15:34:22.376Z,21.52
2018-03-25T15:36:48.400Z,21.50
2018-03-25T15:39:14.386Z,21.53
2018-03-25T15:41:40.480Z,21.51
2018-03-25T15:44:06.513Z,21.48
2018-03-25T15:46:32.764Z,21.51
2018-03-25T15:48:58.782Z,21.49
2018-03-25T15:51:24.775Z,21.52
2018-03-25T15:53:50.801Z,21.51
2018-03-25T15:56:16.948Z,21.53
2018-03-25T15:58:43.025Z,21.53
2018-03-25T16:01:09.004Z,21.53
2018-03-25T16:03:36.146Z,21.51
2018-03-25T16:06:02.127Z,21.50
2018-03-25T16:08:28.230Z,21.51
2018-03-25T16:10:54.189Z,21.54
2018-03-25T16:13:20.231Z,21.55
2018-03-25T16:15:46.316Z,21.52
2018-03-25T16:18:12.341Z,21.50
2018-03-25T16:20:38.313Z,21.47
2018-03-25T16:23:04.306Z,21.43
2018-03-25T16:25:30.302Z,21.40
2018-03-25T16:27:56.300Z,21.40
2018-03-25T16:30:22.298Z,21.40
2018-03-25T16:32:48.356Z,21.41
2018-03-25T16:35:14.312Z,21.46
2018-03-25T16:37:40.334Z,21.49
2018-03-25T16:40:06.291Z,21.51
2018-03-25T16:42:32.281Z,21.52
2018-03-25T16:44:58.316Z,21.51
2018-03-25T16:47:24.276Z,21.47
2018-03-25T16:49:50.408Z,21.45
2018-03-25T16:52:16.427Z,21.47
2018-03-25T16:54:42.388Z,21.51
2018-03-25T16:57:08.401Z,21.51
2018-03-25T16:59:34.383Z,21.52
2018-03-25T17:02:00.405Z,21.51
2018-03-25T17:04:26.396Z,21.53
2018-03-25T17:06:52.412Z,21.55
2018-03-25T17:09:18.400Z,21.55
2018-03-25T17:11:44.357Z,21.59
2018-03-25T17:14:10.355Z,21.61
2018-03-25T17:16:36.341Z,21.60
2018-03-25T17:19:02.375Z,21.55
2018-03-25T17:21:28.362Z,21.57
2018-03-25T17:23:54.377Z,21.55
2018-03-25T17:26:20.375Z,21.53
2018-03-25T17:28:46.364Z,21.50
2018-03-25T17:31:12.388Z,21.49
2018-03-25T17:33:38.399Z,21.45
2018-03-25T17:36:04.384Z,21.46
2018-03-25T17:38:30.373Z,21.44
2018-03-25T17:40:56.370Z,21.47
2018-03-25T17:43:22.394Z,21.48
2018-03-25T17:45:48.355Z,21.48
2018-03-25T17:48:14.343Z,21.49
2018-03-25T17:50:40.342Z,21.48
2018-03-25T17:53:06.364Z,21.50
2018-03-25T17:55:32.357Z,21.47
2018-03-25T17:57:58.356Z,21.44
2018-03-25T18:00:24.361Z,21.49
2018-03-25T18:02:50.339Z,21.49
2018-03-25T18:05:16.326Z,21.50
2018-03-25T18:07:42.347Z,21.49
2018-03-25T18:10:08.309Z,21.47
2018-03-25T18:12:34.334Z,21.50
2018-03-25T18:15:00.430Z,21.51
2018-03-25T18:17:34.100Z,21.50
2018-03-25T18:19:52.534Z,21.50
2018-03-25T18:22:18.542Z,21.50
2018-03-25T18:24:44.572Z,21.51
2018-03-25T18:27:10.669Z,21.53
2018-03-25T18:29:36.717Z,21.49
2018-03-25T18:32:02.705Z,21.57
2018-03-25T18:34:28.698Z,21.53
2018-03-25T18:36:54.694Z,21.52
2018-03-25T18:39:20.682Z,21.49
2018-03-25T18:41:46.690Z,21.49
2018-03-25T18:44:12.678Z,21.49
2018-03-25T18:46:38.667Z,21.50
2018-03-25T18:49:04.663Z,21.49
2018-03-25T18:51:30.654Z,21.51
2018-03-25T18:53:56.650Z,21.49
2018-03-25T18:56:22.644Z,21.48
2018-03-25T18:58:48.664Z,21.50
2018-03-25T19:01:14.662Z,21.48
2018-03-25T19:03:40.653Z,21.49
2018-03-25T19:06:06.647Z,21.45
2018-03-25T19:08:33.462Z,21.44
2018-03-25T19:11:00.208Z,21.42
2018-03-25T19:13:26.237Z,21.42
2018-03-25T19:15:52.244Z,21.41
2018-03-25T19:18:18.229Z,21.39
2018-03-25T19:20:44.262Z,21.37
2018-03-25T19:23:10.243Z,21.35
2018-03-25T19:25:36.268Z,21.35
2018-03-25T19:28:02.421Z,21.35
2018-03-25T19:30:28.743Z,21.33
2018-03-25T19:32:54.766Z,21.33
2018-03-25T19:35:20.771Z,21.36
2018-03-25T19:37:46.760Z,21.37
2018-03-25T19:40:12.789Z,21.36
2018-03-25T19:42:39.039Z,21.38
2018-03-25T19:45:05.062Z,21.35
2018-03-25T19:47:31.042Z,21.36
2018-03-25T19:49:57.074Z,21.34
2018-03-25T19:52:23.098Z,21.35
2018-03-25T19:54:49.066Z,21.34
2018-03-25T19:57:15.050Z,21.34
2018-03-25T19:59:41.133Z,21.34
2018-03-25T20:02:07.159Z,21.35
2018-03-25T20:04:33.158Z,21.36
2018-03-25T20:06:59.201Z,21.34
2018-03-25T20:09:25.205Z,21.32
2018-03-25T20:11:51.218Z,21.31
2018-03-25T20:14:17.222Z,21.29
2018-03-25T20:16:43.217Z,21.30
2018-03-25T20:19:09.260Z,21.30
2018-03-25T20:21:35.258Z,21.33
2018-03-25T20:24:01.280Z,21.32
2018-03-25T20:26:27.268Z,21.31
2018-03-25T20:28:53.271Z,21.31
2018-03-25T20:31:19.280Z,21.31
2018-03-25T20:33:45.326Z,21.31
2018-03-25T20:36:11.393Z,21.31
2018-03-25T20:38:37.385Z,21.32
2018-03-25T20:41:03.421Z,21.32
2018-03-25T20:43:29.441Z,21.31
2018-03-25T20:45:55.412Z,21.27
2018-03-25T20:48:21.699Z,21.31
2018-03-25T20:50:47.735Z,21.31
2018-03-25T20:53:13.706Z,21.33
2018-03-25T20:55:39.837Z,21.32
2018-03-25T20:58:05.818Z,21.33
2018-03-25T21:00:31.882Z,21.31
2018-03-25T21:02:57.897Z,21.30
2018-03-25T21:05:23.919Z,21.26
2018-03-25T21:07:50.171Z,21.26
2018-03-25T21:10:16.173Z,21.28
2018-03-25T21:12:42.192Z,21.26
2018-03-25T21:15:08.225Z,21.25
2018-03-25T21:17:34.263Z,21.26
2018-03-25T21:20:00.253Z,21.26
2018-03-25T21:22:26.328Z,21.22
2018-03-25T21:24:52.327Z,21.24
2018-03-25T21:27:18.355Z,21.23
2018-03-25T21:29:44.326Z,21.21
2018-03-25T21:32:10.315Z,21.22
2018-03-25T21:34:36.321Z,21.23
2018-03-25T21:37:02.379Z,21.21
2018-03-25T21:39:28.333Z,21.23
2018-03-25T21:41:54.356Z,21.24
2018-03-25T21:44:20.347Z,21.24
2018-03-25T21:46:46.334Z,21.22
2018-03-25T21:49:12.354Z,21.21
2018-03-25T21:51:38.398Z,21.25
2018-03-25T21:54:04.362Z,21.23
2018-03-25T21:56:30.322Z,21.22
2018-03-25T21:58:56.316Z,21.22
2018-03-25T22:01:22.318Z,21.20
2018-03-25T22:03:48.306Z,21.22
2018-03-25T22:06:14.302Z,21.22
2018-03-25T22:08:40.288Z,21.20
2018-03-25T22:11:06.306Z,21.22
2018-03-25T22:13:32.291Z,21.23
2018-03-25T22:15:58.280Z,21.25
2018-03-25T22:18:24.274Z,21.22
2018-03-25T22:20:50.294Z,21.26
2018-03-25T22:23:16.254Z,21.25
2018-03-25T22:25:42.272Z,21.25
2018-03-25T22:28:08.232Z,21.22
2018-03-25T22:30:34.224Z,21.24
2018-03-25T22:33:00.212Z,21.27
2018-03-25T22:35:26.207Z,21.23
2018-03-25T22:37:52.224Z,21.24
2018-03-25T22:40:18.209Z,21.22
2018-03-25T22:42:44.233Z,21.22
2018-03-25T22:45:10.250Z,21.24
2018-03-25T22:47:36.204Z,21.25
2018-03-25T22:50:02.193Z,21.20
2018-03-25T22:52:28.182Z,21.23
2018-03-25T22:54:54.172Z,21.24
2018-03-25T22:57:20.160Z,21.23
2018-03-25T22:59:46.165Z,21.22
2018-03-25T23:02:12.174Z,21.21
2018-03-25T23:04:38.131Z,21.22
2018-03-25T23:07:04.127Z,21.21
2018-03-25T23:09:30.113Z,21.20
2018-03-25T23:11:56.110Z,21.20
2018-03-25T23:14:22.102Z,21.23
2018-03-25T23:16:48.096Z,21.24
2018-03-25T23:19:14.092Z,21.22
2018-03-25T23:21:40.080Z,21.23
2018-03-25T23:24:06.097Z,21.22
2018-03-25T23:26:32.083Z,21.23
2018-03-25T23:28:58.050Z,21.21
2018-03-25T23:31:24.068Z,21.21
2018-03-25T23:33:50.022Z,21.24
2018-03-25T23:36:16.018Z,21.23
2018-03-25T23:38:42.030Z,21.23
2018-03-25T23:41:07.990Z,21.21
2018-03-25T23:43:33.987Z,21.22
2018-03-25T23:45:59.971Z,21.19
2018-03-25T23:48:25.982Z,21.21
2018-03-25T23:50:51.998Z,21.22
2018-03-25T23:53:17.990Z,21.22
2018-03-25T23:58:09.972Z,21.23
